createdAt,value
2017-05-13T00:01:05.541Z,95.10
2017-05-13T00:03:35.439Z,94.80
2017-05-13T00:06:04.634Z,94.20
2017-05-13T00:08:33.827Z,94.30
2017-05-13T00:11:03.040Z,94.70
2017-05-13T00:13:32.232Z,95.60
2017-05-13T00:16:01.444Z,95.50
2017-05-13T00:18:30.735Z,95.40
2017-05-13T00:20:59.928Z,95.90
2017-05-13T00:23:29.134Z,96.40
2017-05-13T00:25:58.338Z,95.20
2017-05-13T00:28:27.544Z,95.30
2017-05-13T00:30:57.579Z,95.10
2017-05-13T00:33:27.509Z,95.20
2017-05-13T00:35:56.930Z,94.70
2017-05-13T00:38:26.173Z,94.80
2017-05-13T00:40:56.060Z,94.70
2017-05-13T00:43:25.408Z,95.30
2017-05-13T00:45:55.348Z,94.90
2017-05-13T00:48:24.584Z,95.40
2017-05-13T00:50:53.788Z,95.70
2017-05-13T00:53:22.987Z,95.90
2017-05-13T00:55:52.346Z,96.20
2017-05-13T00:58:23.004Z,96.50
2017-05-13T01:00:52.188Z,96.60
2017-05-13T01:03:21.396Z,96.90
2017-05-13T01:05:50.595Z,96.70
2017-05-13T01:08:21.230Z,96.30
2017-05-13T01:10:51.888Z,96.40
2017-05-13T01:13:21.107Z,95.90
2017-05-13T01:15:50.312Z,95.80
2017-05-13T01:18:20.396Z,95.50
2017-05-13T01:20:49.599Z,95.20
2017-05-13T01:23:18.803Z,95.20
2017-05-13T01:25:47.995Z,96.00
2017-05-13T01:28:17.195Z,96.10
2017-05-13T01:30:46.564Z,96.60
2017-05-13T01:33:15.767Z,96.60
2017-05-13T01:35:44.956Z,96.90
2017-05-13T01:38:14.156Z,97.20
2017-05-13T01:40:43.378Z,97.20
2017-05-13T01:43:12.574Z,97.20
2017-05-13T01:45:41.792Z,97.20
2017-05-13T01:48:11.092Z,97.30
2017-05-13T01:50:40.303Z,97.70
2017-05-13T01:53:09.495Z,97.40
2017-05-13T01:55:38.871Z,97.40
2017-05-13T01:58:08.115Z,97.30
2017-05-13T02:00:37.300Z,97.40
2017-05-13T02:03:06.500Z,97.40
2017-05-13T02:05:35.700Z,97.40
2017-05-13T02:08:04.900Z,97.50
2017-05-13T02:10:34.812Z,97.60
2017-05-13T02:13:04.012Z,97.70
2017-05-13T02:15:33.269Z,97.60
2017-05-13T02:18:02.488Z,97.50
2017-05-13T02:20:31.673Z,97.40
2017-05-13T02:23:00.874Z,97.50
2017-05-13T02:25:30.079Z,97.80
2017-05-13T02:27:59.307Z,97.80
2017-05-13T02:30:28.565Z,97.80
2017-05-13T02:32:57.763Z,97.90
2017-05-13T02:35:26.974Z,98.00
2017-05-13T02:37:56.215Z,98.10
2017-05-13T02:40:25.415Z,98.20
2017-05-13T02:42:55.308Z,98.20
2017-05-13T02:45:25.211Z,98.20
2017-05-13T02:47:54.404Z,98.30
2017-05-13T02:50:25.039Z,98.50
2017-05-13T02:52:54.231Z,98.40
2017-05-13T02:55:23.427Z,98.40
2017-05-13T02:57:52.648Z,98.40
2017-05-13T03:00:21.851Z,98.20
2017-05-13T03:02:51.063Z,98.20
2017-05-13T03:05:20.268Z,98.10
2017-05-13T03:07:49.468Z,98.10
2017-05-13T03:10:18.647Z,98.00
2017-05-13T03:12:47.859Z,98.40
2017-05-13T03:15:17.056Z,98.50
2017-05-13T03:17:46.277Z,98.60
2017-05-13T03:20:15.479Z,98.60
2017-05-13T03:22:44.674Z,98.80
2017-05-13T03:25:13.896Z,98.20
2017-05-13T03:27:43.847Z,98.40
2017-05-13T03:30:13.115Z,98.20
2017-05-13T03:32:43.056Z,98.00
2017-05-13T03:35:12.295Z,98.10
2017-05-13T03:37:41.491Z,98.10
2017-05-13T03:40:10.700Z,98.00
2017-05-13T03:42:39.907Z,98.00
2017-05-13T03:45:09.119Z,98.10
2017-05-13T03:47:39.053Z,98.20
2017-05-13T03:50:08.954Z,98.00
2017-05-13T03:52:38.945Z,97.90
2017-05-13T03:55:08.160Z,97.90
2017-05-13T03:57:38.127Z,97.90
2017-05-13T04:00:07.331Z,98.00
2017-05-13T04:02:36.593Z,97.80
2017-05-13T04:05:06.539Z,97.80
2017-05-13T04:07:35.744Z,97.80
2017-05-13T04:10:05.040Z,97.50
2017-05-13T04:12:35.670Z,97.40
2017-05-13T04:15:04.851Z,97.70
2017-05-13T04:17:34.824Z,97.70
2017-05-13T04:20:04.032Z,97.60
2017-05-13T04:22:33.236Z,97.70
2017-05-13T04:25:02.497Z,97.60
2017-05-13T04:27:33.135Z,97.60
2017-05-13T04:30:02.419Z,97.70
2017-05-13T04:32:31.611Z,97.70
2017-05-13T04:35:00.856Z,97.60
2017-05-13T04:37:30.129Z,97.30
2017-05-13T04:39:59.325Z,97.30
2017-05-13T04:42:28.535Z,97.10
2017-05-13T04:44:57.775Z,96.80
2017-05-13T04:47:27.008Z,96.40
2017-05-13T04:49:56.191Z,96.20
2017-05-13T04:52:25.391Z,96.10
2017-05-13T04:54:54.597Z,96.20
2017-05-13T04:57:24.480Z,96.10
2017-05-13T04:59:53.691Z,95.90
2017-05-13T05:02:23.575Z,95.60
2017-05-13T05:04:52.791Z,95.80
2017-05-13T05:07:21.987Z,95.00
2017-05-13T05:09:51.187Z,94.50
2017-05-13T05:12:20.395Z,94.00
2017-05-13T05:14:49.587Z,93.70
2017-05-13T05:17:18.792Z,94.50
2017-05-13T05:19:48.003Z,94.00
2017-05-13T05:22:17.195Z,94.40
2017-05-13T05:24:46.395Z,94.60
2017-05-13T05:27:15.608Z,94.80
2017-05-13T05:29:44.916Z,94.70
2017-05-13T05:32:14.842Z,95.00
2017-05-13T05:34:44.787Z,94.70
2017-05-13T05:37:13.977Z,94.80
2017-05-13T05:39:44.826Z,94.90
2017-05-13T05:42:14.021Z,94.70
2017-05-13T05:44:43.204Z,94.10
2017-05-13T05:47:12.403Z,94.10
2017-05-13T05:49:41.471Z,94.10
2017-05-13T05:52:10.669Z,94.30
2017-05-13T05:54:39.871Z,94.30
2017-05-13T05:57:09.059Z,93.50
2017-05-13T05:59:38.280Z,93.80
2017-05-13T06:02:08.152Z,93.70
2017-05-13T06:04:36.696Z,92.20
2017-05-13T06:07:06.591Z,92.60
2017-05-13T06:09:35.793Z,92.70
2017-05-13T06:12:04.990Z,92.80
2017-05-13T06:14:34.200Z,92.70
2017-05-13T06:17:03.393Z,93.00
2017-05-13T06:19:33.319Z,92.30
2017-05-13T06:22:03.269Z,91.90
2017-05-13T06:24:32.447Z,91.70
2017-05-13T06:27:01.653Z,90.80
2017-05-13T06:29:30.852Z,90.60
2017-05-13T06:32:00.045Z,89.10
2017-05-13T06:34:30.682Z,89.80
2017-05-13T06:36:59.868Z,90.20
2017-05-13T06:39:29.076Z,90.50
2017-05-13T06:41:58.283Z,87.50
2017-05-13T06:44:27.490Z,87.70
2017-05-13T06:46:56.683Z,87.30
2017-05-13T06:49:25.912Z,88.80
2017-05-13T06:51:55.083Z,88.00
2017-05-13T06:54:24.291Z,85.20
2017-05-13T06:56:53.491Z,86.40
2017-05-13T06:59:22.679Z,85.30
2017-05-13T07:01:51.884Z,85.40
2017-05-13T07:04:20.904Z,85.40
2017-05-13T07:06:49.900Z,85.40
2017-05-13T07:09:19.247Z,85.00
2017-05-13T07:11:49.215Z,85.60
2017-05-13T07:14:18.415Z,79.60
2017-05-13T07:16:47.612Z,82.00
2017-05-13T07:19:17.575Z,79.50
2017-05-13T07:21:47.515Z,81.40
2017-05-13T07:24:16.723Z,86.50
2017-05-13T07:26:45.932Z,85.00
2017-05-13T07:29:15.134Z,83.70
2017-05-13T07:31:44.341Z,84.20
2017-05-13T07:34:13.559Z,82.10
2017-05-13T07:36:42.739Z,81.90
2017-05-13T07:39:11.962Z,80.40
2017-05-13T07:41:41.151Z,82.50
2017-05-13T07:44:11.047Z,83.90
2017-05-13T07:46:40.260Z,80.90
2017-05-13T07:49:09.480Z,81.60
2017-05-13T07:51:38.839Z,81.70
2017-05-13T07:54:08.097Z,84.50
2017-05-13T07:56:38.048Z,83.10
2017-05-13T07:59:07.314Z,77.10
2017-05-13T08:01:36.572Z,79.40
2017-05-13T08:04:05.775Z,80.90
2017-05-13T08:06:35.000Z,73.40
2017-05-13T08:09:03.500Z,69.90
2017-05-13T08:11:33.443Z,67.50
2017-05-13T08:14:02.674Z,68.20
2017-05-13T08:16:31.875Z,69.10
2017-05-13T08:19:01.811Z,66.60
2017-05-13T08:21:31.024Z,67.00
2017-05-13T08:24:00.055Z,68.50
2017-05-13T08:26:29.252Z,71.40
2017-05-13T08:28:59.142Z,68.30
2017-05-13T08:31:28.359Z,63.00
2017-05-13T08:33:57.532Z,66.00
2017-05-13T08:36:26.723Z,61.60
2017-05-13T08:38:55.948Z,60.90
2017-05-13T08:41:25.202Z,64.00
2017-05-13T08:43:54.402Z,64.10
2017-05-13T08:46:23.668Z,65.90
2017-05-13T08:48:53.551Z,66.50
2017-05-13T08:51:22.755Z,70.60
2017-05-13T08:53:51.944Z,69.60
2017-05-13T08:56:21.159Z,69.80
2017-05-13T08:58:50.341Z,66.40
2017-05-13T09:01:19.531Z,67.80
2017-05-13T09:03:48.389Z,69.80
2017-05-13T09:06:17.612Z,62.30
2017-05-13T09:08:46.822Z,60.70
2017-05-13T09:11:16.026Z,64.80
2017-05-13T09:13:45.227Z,64.00
2017-05-13T09:16:14.506Z,63.20
2017-05-13T09:18:43.703Z,62.10
2017-05-13T09:21:12.906Z,58.90
2017-05-13T09:23:42.128Z,61.40
2017-05-13T09:26:11.314Z,61.80
2017-05-13T09:28:40.571Z,58.70
2017-05-13T09:31:11.179Z,60.40
2017-05-13T09:33:39.679Z,60.50
2017-05-13T09:36:08.964Z,61.30
2017-05-13T09:38:38.915Z,59.80
2017-05-13T09:41:08.107Z,58.00
2017-05-13T09:43:37.344Z,62.60
2017-05-13T09:46:06.542Z,58.60
2017-05-13T09:48:35.761Z,60.30
2017-05-13T09:51:04.955Z,58.10
2017-05-13T09:53:34.863Z,58.80
2017-05-13T09:56:04.071Z,59.40
2017-05-13T09:58:33.228Z,64.70
2017-05-13T10:01:02.430Z,65.80
2017-05-13T10:03:31.686Z,66.00
2017-05-13T10:06:01.636Z,64.00
2017-05-13T10:08:30.828Z,61.00
2017-05-13T10:11:00.028Z,59.00
2017-05-13T10:13:29.255Z,59.20
2017-05-13T10:15:58.471Z,57.50
2017-05-13T10:18:27.834Z,59.30
2017-05-13T10:20:57.025Z,58.90
2017-05-13T10:23:26.232Z,59.80
2017-05-13T10:25:55.424Z,60.00
2017-05-13T10:28:24.620Z,63.20
2017-05-13T10:30:53.839Z,60.70
2017-05-13T10:33:23.061Z,62.60
2017-05-13T10:35:52.970Z,59.60
2017-05-13T10:38:22.158Z,59.20
2017-05-13T10:40:51.376Z,58.00
2017-05-13T10:43:20.581Z,58.80
2017-05-13T10:45:49.852Z,57.20
2017-05-13T10:48:19.074Z,56.40
2017-05-13T10:50:48.315Z,58.30
2017-05-13T10:53:18.251Z,59.20
2017-05-13T10:55:47.471Z,55.80
2017-05-13T10:58:16.669Z,54.70
2017-05-13T11:00:45.861Z,55.70
2017-05-13T11:03:15.112Z,56.90
2017-05-13T11:05:44.319Z,57.70
2017-05-13T11:08:13.534Z,61.20
2017-05-13T11:10:43.444Z,63.10
2017-05-13T11:13:13.444Z,64.80
2017-05-13T11:15:42.655Z,66.70
2017-05-13T11:18:12.614Z,68.30
2017-05-13T11:20:41.824Z,67.70
2017-05-13T11:23:11.026Z,66.10
2017-05-13T11:25:40.235Z,65.70
2017-05-13T11:28:09.433Z,61.10
2017-05-13T11:30:38.643Z,58.70
2017-05-13T11:33:07.850Z,58.10
2017-05-13T11:35:37.167Z,56.60
2017-05-13T11:38:06.380Z,59.00
2017-05-13T11:40:35.584Z,58.20
2017-05-13T11:43:04.094Z,56.00
2017-05-13T11:45:33.354Z,57.20
2017-05-13T11:48:02.556Z,55.90
2017-05-13T11:50:31.786Z,54.60
2017-05-13T11:53:01.002Z,55.10
2017-05-13T11:55:30.221Z,54.70
2017-05-13T11:57:59.472Z,55.70
2017-05-13T12:00:28.689Z,57.00
2017-05-13T12:02:57.935Z,57.30
2017-05-13T12:05:27.157Z,57.00
2017-05-13T12:07:56.369Z,57.50
2017-05-13T12:10:25.575Z,57.90
2017-05-13T12:12:54.767Z,58.90
2017-05-13T12:15:24.002Z,57.40
2017-05-13T12:17:53.267Z,58.00
2017-05-13T12:20:22.488Z,60.40
2017-05-13T12:22:51.683Z,60.10
2017-05-13T12:25:20.937Z,62.30
2017-05-13T12:27:50.140Z,63.60
2017-05-13T12:30:19.392Z,65.50
2017-05-13T12:32:48.639Z,70.80
2017-05-13T12:35:17.838Z,74.20
2017-05-13T12:37:47.057Z,71.50
2017-05-13T12:40:16.264Z,68.50
2017-05-13T12:42:45.458Z,83.50
2017-05-13T12:45:14.679Z,72.70
2017-05-13T12:47:43.862Z,67.30
2017-05-13T12:50:13.144Z,67.10
2017-05-13T12:52:42.344Z,71.40
2017-05-13T12:55:11.561Z,71.90
2017-05-13T12:57:40.767Z,67.00
2017-05-13T13:00:09.972Z,64.60
2017-05-13T13:02:39.256Z,63.00
2017-05-13T13:05:08.475Z,65.50
2017-05-13T13:07:37.723Z,71.90
2017-05-13T13:10:06.924Z,66.90
2017-05-13T13:12:36.126Z,66.60
2017-05-13T13:15:05.364Z,67.70
2017-05-13T13:17:34.571Z,70.30
2017-05-13T13:20:03.839Z,68.40
2017-05-13T13:22:33.063Z,67.60
2017-05-13T13:25:02.279Z,62.90
2017-05-13T13:27:31.471Z,63.40
2017-05-13T13:30:00.683Z,63.90
2017-05-13T13:32:29.940Z,61.90
2017-05-13T13:34:59.885Z,61.00
2017-05-13T13:37:29.121Z,61.50
2017-05-13T13:39:58.327Z,60.10
2017-05-13T13:42:27.572Z,57.10
2017-05-13T13:44:57.552Z,58.50
2017-05-13T13:47:26.767Z,57.30
2017-05-13T13:49:55.991Z,55.40
2017-05-13T13:52:25.182Z,56.10
2017-05-13T13:54:55.127Z,55.10
2017-05-13T13:57:24.313Z,55.10
2017-05-13T13:59:53.520Z,55.80
2017-05-13T14:02:23.199Z,53.30
2017-05-13T14:04:53.247Z,54.60
2017-05-13T14:07:22.460Z,55.80
2017-05-13T14:09:51.647Z,54.90
2017-05-13T14:12:22.296Z,55.30
2017-05-13T14:14:51.524Z,58.40
2017-05-13T14:17:21.300Z,57.30
2017-05-13T14:19:50.515Z,60.60
2017-05-13T14:22:19.725Z,59.60
2017-05-13T14:24:48.994Z,56.90
2017-05-13T14:27:18.183Z,56.40
2017-05-13T14:29:47.419Z,54.60
2017-05-13T14:32:16.619Z,52.50
2017-05-13T14:34:45.828Z,52.20
2017-05-13T14:37:15.039Z,53.40
2017-05-13T14:39:44.244Z,51.40
2017-05-13T14:42:13.448Z,53.10
2017-05-13T14:44:42.639Z,50.00
2017-05-13T14:47:11.867Z,51.00
2017-05-13T14:49:41.841Z,51.90
2017-05-13T14:52:11.047Z,53.20
2017-05-13T14:54:40.265Z,54.40
2017-05-13T14:57:09.473Z,55.60
2017-05-13T14:59:38.730Z,55.40
2017-05-13T15:02:07.931Z,56.30
2017-05-13T15:04:37.131Z,57.80
2017-05-13T15:07:06.368Z,59.10
2017-05-13T15:09:35.578Z,59.40
2017-05-13T15:12:05.583Z,67.80
2017-05-13T15:14:35.464Z,62.10
2017-05-13T15:17:04.680Z,66.40
2017-05-13T15:19:33.920Z,76.80
2017-05-13T15:22:03.879Z,83.60
2017-05-13T15:24:33.095Z,83.50
2017-05-13T15:27:02.312Z,85.20
2017-05-13T15:29:31.536Z,90.50
2017-05-13T15:32:00.728Z,88.30
2017-05-13T15:34:30.748Z,84.20
2017-05-13T15:37:00.688Z,79.80
2017-05-13T15:39:30.111Z,77.00
2017-05-13T15:41:59.335Z,71.40
2017-05-13T15:44:28.548Z,63.80
2017-05-13T15:46:58.514Z,58.30
2017-05-13T15:49:27.827Z,54.60
2017-05-13T15:51:57.032Z,57.10
2017-05-13T15:54:26.222Z,68.90
2017-05-13T15:56:55.491Z,67.60
2017-05-13T15:59:25.459Z,69.50
2017-05-13T16:01:54.798Z,66.30
2017-05-13T16:04:24.781Z,72.00
2017-05-13T16:06:53.989Z,73.40
2017-05-13T16:09:23.225Z,72.50
2017-05-13T16:11:53.260Z,72.40
2017-05-13T16:14:22.517Z,66.50
2017-05-13T16:16:51.817Z,61.30
2017-05-13T16:19:21.028Z,66.90
2017-05-13T16:21:50.272Z,63.30
2017-05-13T16:24:19.476Z,64.30
2017-05-13T16:26:48.748Z,62.40
2017-05-13T16:29:17.977Z,63.20
2017-05-13T16:31:49.132Z,65.00
2017-05-13T16:34:18.350Z,66.70
2017-05-13T16:36:47.682Z,63.30
2017-05-13T16:39:17.747Z,61.00
2017-05-13T16:41:46.976Z,58.90
2017-05-13T16:44:16.172Z,59.20
2017-05-13T16:46:45.381Z,59.30
2017-05-13T16:49:14.576Z,58.70
2017-05-13T16:51:43.999Z,62.10
2017-05-13T16:54:13.973Z,62.00
2017-05-13T16:56:43.244Z,65.00
2017-05-13T16:59:13.325Z,69.30
2017-05-13T17:01:42.551Z,75.40
2017-05-13T17:04:12.483Z,78.00
2017-05-13T17:06:41.803Z,74.90
2017-05-13T17:09:11.061Z,73.80
2017-05-13T17:11:40.281Z,73.30
2017-05-13T17:14:09.481Z,73.50
2017-05-13T17:16:38.700Z,77.00
2017-05-13T17:19:07.946Z,78.10
2017-05-13T17:21:37.154Z,79.90
2017-05-13T17:24:06.402Z,79.80
2017-05-13T17:26:35.612Z,80.70
2017-05-13T17:29:04.827Z,74.70
2017-05-13T17:31:34.039Z,78.40
2017-05-13T17:34:03.256Z,78.90
2017-05-13T17:36:33.195Z,78.60
2017-05-13T17:39:02.472Z,79.70
2017-05-13T17:41:31.721Z,80.60
2017-05-13T17:44:00.965Z,82.30
2017-05-13T17:46:30.175Z,87.10
2017-05-13T17:48:59.400Z,90.80
2017-05-13T17:51:28.614Z,90.60
2017-05-13T17:53:57.842Z,91.30
2017-05-13T17:56:27.096Z,90.80
2017-05-13T17:58:56.341Z,90.10
2017-05-13T18:01:25.574Z,91.50
2017-05-13T18:03:54.968Z,93.10
2017-05-13T18:06:24.192Z,94.30
2017-05-13T18:08:54.126Z,93.50
2017-05-13T18:11:23.349Z,96.60
2017-05-13T18:13:52.562Z,96.60
2017-05-13T18:16:21.776Z,97.70
2017-05-13T18:18:51.009Z,97.70
2017-05-13T18:21:20.221Z,98.70
2017-05-13T18:23:49.441Z,98.30
2017-05-13T18:26:19.114Z,98.70
2017-05-13T18:28:49.085Z,98.60
2017-05-13T18:31:18.283Z,97.60
2017-05-13T18:33:47.965Z,97.60
2017-05-13T18:36:17.168Z,96.60
2017-05-13T18:38:46.404Z,95.00
2017-05-13T18:41:15.643Z,95.30
2017-05-13T18:43:45.613Z,96.60
2017-05-13T18:46:14.846Z,97.20
2017-05-13T18:48:44.071Z,95.60
2017-05-13T18:51:14.022Z,95.50
2017-05-13T18:53:43.227Z,94.50
2017-05-13T18:56:12.512Z,94.70
2017-05-13T18:58:41.722Z,94.00
2017-05-13T19:01:10.931Z,93.80
2017-05-13T19:03:40.151Z,94.00
2017-05-13T19:06:09.363Z,93.30
2017-05-13T19:08:39.323Z,93.40
2017-05-13T19:11:08.532Z,94.50
2017-05-13T19:13:37.728Z,94.70
2017-05-13T19:16:06.940Z,94.60
2017-05-13T19:18:36.130Z,95.80
2017-05-13T19:21:05.333Z,97.40
2017-05-13T19:23:34.571Z,97.00
2017-05-13T19:26:03.811Z,97.90
2017-05-13T19:28:32.988Z,98.10
2017-05-13T19:31:02.950Z,98.30
2017-05-13T19:33:32.158Z,98.10
2017-05-13T19:36:01.352Z,98.50
2017-05-13T19:38:30.573Z,98.30
2017-05-13T19:40:59.759Z,98.10
2017-05-13T19:43:29.003Z,97.10
2017-05-13T19:45:58.889Z,96.80
2017-05-13T19:48:28.120Z,97.40
2017-05-13T19:50:58.085Z,98.10
2017-05-13T19:53:27.387Z,98.50
2017-05-13T19:55:58.065Z,98.90
2017-05-13T19:58:27.995Z,99.40
2017-05-13T20:00:57.268Z,99.20
2017-05-13T20:03:26.476Z,98.70
2017-05-13T20:05:55.776Z,98.50
2017-05-13T20:08:25.742Z,99.10
2017-05-13T20:10:55.020Z,98.90
2017-05-13T20:13:24.233Z,98.80
2017-05-13T20:15:53.476Z,98.90
2017-05-13T20:18:22.660Z,98.40
2017-05-13T20:20:51.884Z,98.90
2017-05-13T20:23:21.117Z,99.10
2017-05-13T20:25:50.353Z,99.30
2017-05-13T20:28:19.963Z,99.50
2017-05-13T20:30:49.237Z,99.30
2017-05-13T20:33:18.443Z,99.00
2017-05-13T20:35:47.666Z,98.60
2017-05-13T20:38:18.319Z,98.70
2017-05-13T20:40:47.594Z,98.70
2017-05-13T20:43:16.783Z,98.60
2017-05-13T20:45:46.003Z,98.60
2017-05-13T20:48:15.203Z,98.60
2017-05-13T20:50:44.564Z,98.60
2017-05-13T20:53:13.805Z,99.00
2017-05-13T20:55:43.000Z,98.90
2017-05-13T20:58:12.902Z,98.90
2017-05-13T21:00:42.800Z,99.00
2017-05-13T21:03:12.004Z,99.10
2017-05-13T21:05:41.225Z,99.10
2017-05-13T21:08:10.419Z,99.10
2017-05-13T21:10:39.639Z,99.20
2017-05-13T21:13:08.893Z,99.20
2017-05-13T21:15:38.105Z,99.10
2017-05-13T21:18:07.343Z,99.50
2017-05-13T21:20:36.539Z,99.00
2017-05-13T21:23:05.763Z,99.20
2017-05-13T21:25:34.968Z,99.10
2017-05-13T21:28:04.945Z,99.10
2017-05-13T21:30:34.847Z,99.20
2017-05-13T21:33:05.486Z,99.30
2017-05-13T21:35:34.688Z,99.40
2017-05-13T21:38:09.443Z,99.90
2017-05-13T21:40:38.631Z,99.30
2017-05-13T21:43:07.818Z,99.10
2017-05-13T21:45:37.029Z,99.10
2017-05-13T21:48:06.264Z,99.30
2017-05-13T21:50:36.271Z,99.30
2017-05-13T21:53:05.459Z,99.40
2017-05-13T21:55:34.712Z,99.50
2017-05-13T21:58:03.953Z,99.60
2017-05-13T22:00:33.913Z,99.60
2017-05-13T22:03:03.131Z,99.80
2017-05-13T22:05:32.349Z,99.90
2017-05-13T22:08:01.556Z,99.90
2017-05-13T22:10:30.753Z,99.90
2017-05-13T22:12:59.966Z,99.60
2017-05-13T22:15:29.180Z,99.50
2017-05-13T22:17:58.363Z,99.20
2017-05-13T22:20:27.560Z,99.10
2017-05-13T22:22:56.767Z,99.20
2017-05-13T22:25:26.003Z,99.60
2017-05-13T22:27:55.226Z,99.90
2017-05-13T22:30:24.420Z,99.90
2017-05-13T22:32:53.630Z,99.80
2017-05-13T22:35:22.856Z,99.60
2017-05-13T22:37:52.065Z,99.70
2017-05-13T22:40:21.277Z,99.80
2017-05-13T22:42:50.459Z,99.90
2017-05-13T22:45:19.675Z,99.90
2017-05-13T22:47:48.874Z,99.90
2017-05-13T22:50:18.077Z,99.90
2017-05-13T22:52:48.031Z,99.70
2017-05-13T22:55:17.223Z,99.70
2017-05-13T22:57:46.435Z,99.70
2017-05-13T23:00:15.642Z,99.80
2017-05-13T23:02:44.922Z,99.80
2017-05-13T23:05:14.127Z,99.80
2017-05-13T23:07:43.349Z,99.80
2017-05-13T23:10:12.548Z,99.90
2017-05-13T23:12:41.742Z,99.40
2017-05-13T23:15:10.934Z,99.50
2017-05-13T23:17:40.164Z,99.60
2017-05-13T23:20:09.355Z,99.50
2017-05-13T23:22:39.352Z,99.40
2017-05-13T23:25:08.535Z,99.70
2017-05-13T23:27:37.741Z,99.80
2017-05-13T23:30:06.936Z,99.90
2017-05-13T23:32:36.150Z,99.90
2017-05-13T23:35:06.774Z,99.90
2017-05-13T23:37:35.968Z,99.90
2017-05-13T23:40:05.151Z,99.90
2017-05-13T23:42:35.089Z,99.70
2017-05-13T23:45:04.343Z,99.80
2017-05-13T23:47:33.545Z,99.50
2017-05-13T23:50:02.775Z,99.70
2017-05-13T23:52:32.720Z,99.60
2017-05-13T23:55:02.001Z,99.60
2017-05-13T23:57:31.192Z,99.80
